Time;durP1;ratioP1;P1;durP2;ratioP2;P2;SDS_P1;SDS_P2;PMS_P1;PMS_P2;Temp;Humidity;BMP_temperature;BMP_pressure;BME280_temperature;BME280_humidity;BME280_pressure;Samples;Min_cycle;Max_cycle;Signal;HPM_P1;HPM_P2
2022/03/08 00:00:56;;;;;;;37.72;21.75;;;;;;;16.77;100.00;98871.13;5005168;28;20576;-66
2022/03/08 00:03:45;;;;;;;35.70;20.38;;;;;;;16.77;100.00;98876.31;5007378;28;20056;-67
2022/03/08 00:06:27;;;;;;;37.05;21.23;;;;;;;16.67;100.00;98873.38;5007596;28;20073;-67
2022/03/08 00:09:17;;;;;;;35.25;20.40;;;;;;;16.69;100.00;98870.66;5007463;28;20049;-67
2022/03/08 00:11:59;;;;;;;37.85;22.15;;;;;;;16.67;100.00;98870.78;5008683;28;20121;-66
2022/03/08 00:14:48;;;;;;;38.22;19.98;;;;;;;16.64;100.00;98870.09;5007408;28;20081;-66
2022/03/08 00:17:34;;;;;;;38.40;21.25;;;;;;;16.63;100.00;98871.00;5004444;28;20132;-67
2022/03/08 00:20:23;;;;;;;41.35;21.65;;;;;;;16.61;100.00;98870.22;5012992;28;20381;-67
2022/03/08 00:23:05;;;;;;;42.50;20.65;;;;;;;16.65;100.00;98866.56;5006116;28;20050;-67
2022/03/08 00:26:00;;;;;;;45.95;23.20;;;;;;;16.65;100.00;98869.16;5004849;28;20050;-67
2022/03/08 00:28:48;;;;;;;58.15;25.45;;;;;;;16.64;100.00;98878.72;5005597;28;20073;-66
2022/03/08 00:31:37;;;;;;;46.63;25.55;;;;;;;16.62;100.00;98884.91;5006022;28;20157;-67
2022/03/08 00:34:19;;;;;;;47.58;25.45;;;;;;;16.60;100.00;98887.56;5006390;28;20073;-66
2022/03/08 00:37:08;;;;;;;47.38;25.25;;;;;;;16.58;100.00;98886.81;4993868;28;20440;-67
2022/03/08 00:39:50;;;;;;;52.38;24.90;;;;;;;16.50;100.00;98888.13;5007250;28;20050;-67
2022/03/08 00:42:39;;;;;;;47.00;24.90;;;;;;;16.48;100.00;98884.75;5006266;28;20050;-67
2022/03/08 00:45:28;;;;;;;45.05;24.88;;;;;;;16.39;100.00;98881.69;5004936;28;20058;-67
2022/03/08 00:48:16;;;;;;;49.63;24.80;;;;;;;16.39;100.00;98884.28;5005381;28;20046;-67
2022/03/08 00:51:12;;;;;;;51.35;28.55;;;;;;;16.39;100.00;98896.47;5007412;28;20041;-66
2022/03/08 00:53:48;;;;;;;60.17;32.30;;;;;;;16.38;100.00;98895.63;5005538;28;20073;-67
2022/03/08 00:56:36;;;;;;;52.15;27.60;;;;;;;16.31;100.00;98890.78;5004793;28;20072;-67
2022/03/08 00:59:18;;;;;;;53.63;25.63;;;;;;;16.36;100.00;98892.25;5005050;28;20066;-67
2022/03/08 01:02:09;;;;;;;50.92;26.00;;;;;;;16.31;100.00;98888.19;4997714;28;20050;-66
2022/03/08 01:04:51;;;;;;;67.65;26.08;;;;;;;16.25;100.00;98889.34;5004902;28;20042;-67
2022/03/08 01:07:40;;;;;;;58.45;26.98;;;;;;;16.30;100.00;98886.50;5005590;28;20464;-67
2022/03/08 01:10:26;;;;;;;55.95;26.08;;;;;;;16.27;100.00;98897.09;5003120;28;20049;-67
2022/03/08 01:13:15;;;;;;;51.97;26.75;;;;;;;16.30;100.00;98897.75;5003746;28;20054;-67
2022/03/08 01:16:05;;;;;;;56.72;26.85;;;;;;;16.31;100.00;98896.00;5005658;28;20116;-66
2022/03/08 01:19:00;;;;;;;54.75;28.42;;;;;;;16.29;100.00;98892.63;5010110;28;20053;-67
2022/03/08 01:21:38;;;;;;;55.95;28.20;;;;;;;16.29;100.00;98898.66;5004449;28;20185;-67
2022/03/08 01:24:34;;;;;;;59.53;28.90;;;;;;;16.32;100.00;98893.31;4999930;28;20057;-66
2022/03/08 01:27:23;;;;;;;57.53;28.40;;;;;;;16.34;100.00;98899.31;4966969;28;20055;-67
2022/03/08 01:30:16;;;;;;;58.13;27.48;;;;;;;16.41;100.00;98903.28;4984743;28;20138;-67
2022/03/08 01:32:58;;;;;;;64.00;29.38;;;;;;;16.41;100.00;98903.28;4985101;28;20077;-66
2022/03/08 01:35:49;;;;;;;69.30;31.38;;;;;;;16.40;100.00;98905.94;4982320;28;20085;-67
2022/03/08 01:38:38;;;;;;;61.30;30.23;;;;;;;16.40;100.00;98906.78;4964889;28;20051;-67
2022/03/08 01:41:26;;;;;;;67.15;32.22;;;;;;;16.50;100.00;98914.97;4961980;28;20656;-66
2022/03/08 01:44:09;;;;;;;73.30;32.47;;;;;;;16.60;100.00;98910.16;4976087;28;20097;-69
2022/03/08 01:46:58;;;;;;;71.07;32.05;;;;;;;16.54;100.00;98916.50;4983483;28;20061;-68
2022/03/08 01:49:41;;;;;;;58.80;32.15;;;;;;;16.70;100.00;98921.78;4985272;28;20046;-66
2022/03/08 01:52:31;;;;;;;71.15;34.72;;;;;;;16.75;100.00;98925.84;4975111;28;20053;-66
2022/03/08 01:55:14;;;;;;;71.90;35.47;;;;;;;16.68;100.00;98929.66;4975346;28;20047;-65
2022/03/08 01:58:02;;;;;;;80.10;36.08;;;;;;;16.77;100.00;98929.19;4979532;28;20598;-66
2022/03/08 02:00:50;;;;;;;94.88;39.35;;;;;;;16.89;100.00;98929.50;4964533;28;20050;-66
2022/03/08 02:03:32;;;;;;;77.55;36.88;;;;;;;17.09;100.00;98930.13;4985335;28;20716;-66
2022/03/08 02:06:20;;;;;;;69.72;36.22;;;;;;;17.26;100.00;98937.06;4975576;28;20133;-66
2022/03/08 02:09:02;;;;;;;82.07;37.05;;;;;;;17.59;100.00;98939.63;4985184;28;20046;-66
2022/03/08 02:11:57;;;;;;;72.07;34.45;;;;;;;17.68;100.00;98939.16;4964224;28;20051;-66
2022/03/08 02:14:45;;;;;;;76.03;33.45;;;;;;;18.22;100.00;98947.44;4975503;28;20061;-66
2022/03/08 02:17:34;;;;;;;68.45;32.78;;;;;;;18.01;100.00;98946.88;4990494;28;20394;-66
2022/03/08 02:20:24;;;;;;;64.63;32.58;;;;;;;17.93;100.00;98954.28;4991209;28;20154;-67
2022/03/08 02:23:06;;;;;;;61.90;32.13;;;;;;;18.20;100.00;98951.88;4990743;28;20054;-66
2022/03/08 02:26:02;;;;;;;63.60;30.90;;;;;;;18.50;99.81;98959.75;4997146;28;20152;-67
2022/03/08 02:28:39;;;;;;;60.25;31.42;;;;;;;18.88;94.54;98952.31;5003150;28;20802;-67
2022/03/08 02:31:30;;;;;;;60.00;29.65;;;;;;;19.27;91.74;98962.13;5000745;28;20052;-66
2022/03/08 02:34:11;;;;;;;58.95;31.40;;;;;;;19.68;88.17;98975.28;5003729;28;20140;-66
2022/03/08 02:37:13;;;;;;;66.43;30.90;;;;;;;19.67;85.01;98976.22;5004753;28;20123;-67
2022/03/08 02:39:48;;;;;;;64.75;32.47;;;;;;;19.92;85.05;98978.97;5003569;28;20083;-66
2022/03/08 02:42:38;;;;;;;57.05;29.98;;;;;;;20.42;81.08;98983.63;4994664;28;20077;-66
2022/03/08 02:45:21;;;;;;;54.20;30.55;;;;;;;20.76;77.82;98987.44;5001472;28;20069;-66
2022/03/08 02:48:11;;;;;;;68.72;32.75;;;;;;;21.01;78.24;98990.09;5007558;28;20057;-66
2022/03/08 02:50:59;;;;;;;62.35;32.70;;;;;;;21.21;74.83;98993.19;5009436;28;20123;-67
2022/03/08 02:53:47;;;;;;;58.97;30.95;;;;;;;21.27;74.90;98991.00;5008095;28;20086;-67
2022/03/08 02:56:35;;;;;;;63.35;30.98;;;;;;;21.62;73.33;99001.66;5005476;28;20056;-65
2022/03/08 02:59:21;;;;;;;63.53;32.45;;;;;;;21.72;73.40;99002.66;5007634;28;20488;-67
2022/03/08 03:02:10;;;;;;;61.95;31.27;;;;;;;22.17;71.00;99008.25;5005867;28;20074;-67
2022/03/08 03:04:52;;;;;;;50.15;28.67;;;;;;;22.44;67.78;99011.50;5005069;28;20050;-67
2022/03/08 03:07:41;;;;;;;54.58;30.90;;;;;;;22.92;65.77;99021.97;5005480;28;20060;-66
2022/03/08 03:10:24;;;;;;;59.78;27.90;;;;;;;23.23;65.71;99018.69;5007676;28;20070;-66
2022/03/08 03:13:12;;;;;;;55.97;27.55;;;;;;;23.06;66.40;99011.28;4999251;28;20050;-67
2022/03/08 03:15:54;;;;;;;52.25;28.42;;;;;;;23.14;64.93;99013.31;5004026;28;20153;-67
2022/03/08 03:18:43;;;;;;;55.90;29.75;;;;;;;23.09;63.86;99018.91;5002968;28;20511;-66
2022/03/08 03:21:40;;;;;;;53.80;25.90;;;;;;;23.64;65.13;99025.22;5004338;28;20054;-67
2022/03/08 03:24:16;;;;;;;52.13;26.58;;;;;;;23.65;62.67;99027.72;5003804;28;20050;-67
2022/03/08 03:27:11;;;;;;;49.70;27.17;;;;;;;24.07;60.74;99027.09;5006053;28;20042;-66
2022/03/08 03:29:59;;;;;;;43.95;24.85;;;;;;;24.50;60.90;99019.25;4985600;28;20053;-67
2022/03/08 03:32:49;;;;;;;50.70;25.80;;;;;;;24.63;60.18;99030.44;4985690;28;20057;-67
2022/03/08 03:35:31;;;;;;;53.33;27.45;;;;;;;24.34;57.97;99035.47;4983563;28;20502;-67
2022/03/08 03:38:20;;;;;;;50.72;25.42;;;;;;;24.35;56.19;99031.84;5007323;28;20062;-67
2022/03/08 03:41:02;;;;;;;53.08;26.10;;;;;;;24.81;57.52;99043.91;5008640;28;20481;-67
2022/03/08 03:43:51;;;;;;;47.70;24.38;;;;;;;24.91;56.09;99045.66;5012117;28;20065;-67
2022/03/08 03:46:33;;;;;;;54.00;27.15;;;;;;;24.97;57.21;99039.06;5008572;28;20042;-67
2022/03/08 03:49:23;;;;;;;45.60;26.42;;;;;;;25.34;55.02;99035.00;5010923;28;20145;-67
2022/03/08 03:52:05;;;;;;;63.53;30.60;;;;;;;25.32;54.58;99041.38;5006933;28;20050;-67
2022/03/08 03:54:54;;;;;;;44.88;25.80;;;;;;;25.81;57.58;99043.31;5005639;28;20508;-67
2022/03/08 03:57:37;;;;;;;74.35;34.78;;;;;;;25.98;55.37;99037.41;5008717;28;20057;-67
2022/03/08 04:00:29;;;;;;;78.75;37.80;;;;;;;26.00;53.47;99035.47;5006631;28;20085;-67
2022/03/08 04:03:13;;;;;;;73.38;37.25;;;;;;;26.11;52.40;99043.25;5006144;28;20088;-67
2022/03/08 04:06:02;;;;;;;46.05;26.38;;;;;;;26.38;54.60;99047.09;5008871;28;20050;-67
2022/03/08 04:08:51;;;;;;;66.03;31.95;;;;;;;26.20;53.15;99047.72;5002860;28;20124;-67
2022/03/08 04:11:39;;;;;;;70.07;32.47;;;;;;;26.89;51.23;99055.63;5003280;28;20537;-68
2022/03/08 04:14:35;;;;;;;72.15;35.05;;;;;;;26.66;49.93;99060.34;5003666;28;20085;-68
2022/03/08 04:17:10;;;;;;;85.05;38.22;;;;;;;26.91;49.48;99053.69;5005384;28;20525;-67
2022/03/08 04:20:05;;;;;;;71.78;35.92;;;;;;;27.38;50.05;99051.13;5001757;28;20042;-67
2022/03/08 04:22:41;;;;;;;51.88;27.73;;;;;;;27.86;50.94;99055.47;4997169;28;20377;-68
2022/03/08 04:25:39;;;;;;;71.75;36.20;;;;;;;27.90;50.54;99048.88;4990135;28;20553;-68
2022/03/08 04:28:27;;;;;;;82.18;38.55;;;;;;;28.01;48.42;99054.84;4989070;28;20379;-67
2022/03/08 04:31:16;;;;;;;82.85;39.38;;;;;;;28.22;48.41;99056.41;4989123;28;20049;-68
2022/03/08 04:33:58;;;;;;;88.30;40.88;;;;;;;28.00;46.08;99058.47;4991640;28;20116;-67
2022/03/08 04:36:47;;;;;;;70.30;35.90;;;;;;;28.58;50.50;99057.28;4979794;28;20148;-67
2022/03/08 04:39:29;;;;;;;75.60;39.88;;;;;;;28.81;49.31;99058.56;4985975;28;20046;-67
2022/03/08 04:42:17;;;;;;;64.30;34.53;;;;;;;28.46;49.71;99057.53;4962094;28;20049;-67
2022/03/08 04:45:10;;;;;;;88.55;41.53;;;;;;;28.55;48.58;99063.75;4986019;28;20054;-67
2022/03/08 04:47:51;;;;;;;75.53;35.67;;;;;;;28.41;49.18;99062.44;4972269;28;20055;-67
2022/03/08 04:50:40;;;;;;;64.97;32.25;;;;;;;28.57;48.78;99059.13;4972915;28;20050;-67
2022/03/08 04:53:22;;;;;;;60.58;31.45;;;;;;;28.73;49.59;99061.94;4991002;28;20245;-67
2022/03/08 04:56:18;;;;;;;51.15;26.92;;;;;;;29.00;45.57;99058.38;4993953;28;20054;-68
2022/03/08 04:58:56;;;;;;;65.40;30.70;;;;;;;29.05;49.07;99052.63;4972279;28;20069;-68
2022/03/08 05:01:46;;;;;;;52.15;29.83;;;;;;;28.96;47.00;99051.72;4951579;28;20153;-68
2022/03/08 05:04:29;;;;;;;70.53;32.30;;;;;;;29.26;49.33;99045.13;4970440;28;20074;-68
2022/03/08 05:07:25;;;;;;;60.47;30.77;;;;;;;29.48;47.38;99055.25;4967363;28;20129;-68
2022/03/08 05:10:00;;;;;;;51.22;29.20;;;;;;;29.43;48.21;99059.38;4968204;28;20122;-67
2022/03/08 05:13:00;;;;;;;63.53;29.70;;;;;;;29.25;48.53;99046.13;4956525;28;20039;-69
2022/03/08 05:15:49;;;;;;;60.97;29.45;;;;;;;29.27;47.98;99052.97;4967068;28;20129;-67
2022/03/08 05:18:48;;;;;;;58.47;29.38;;;;;;;28.83;49.71;99048.59;4975733;28;20130;-66
2022/03/08 05:21:43;;;;;;;37.65;21.45;;;;;;;27.88;47.76;99038.44;4961028;28;20046;-68
2022/03/08 05:24:33;;;;;;;39.40;20.23;;;;;;;27.53;46.46;99039.16;4973335;28;20128;-67
2022/03/08 05:27:15;;;;;;;61.47;30.65;;;;;;;28.32;51.41;99028.88;5002333;28;20049;-67
2022/03/08 05:30:06;;;;;;;39.47;19.15;;;;;;;27.78;48.54;99037.63;4997286;28;20073;-65
2022/03/08 05:32:48;;;;;;;51.53;26.13;;;;;;;28.18;52.40;99032.03;5004288;28;20045;-67
2022/03/08 05:35:37;;;;;;;60.55;30.25;;;;;;;28.47;53.89;99034.50;4992266;28;20057;-69
2022/03/08 05:38:19;;;;;;;37.22;18.13;;;;;;;27.76;49.21;99040.47;5004556;28;20056;-67
2022/03/08 05:41:09;;;;;;;47.38;21.42;;;;;;;27.42;50.84;99026.88;5005642;28;20066;-68
2022/03/08 05:43:50;;;;;;;41.38;21.80;;;;;;;28.07;50.91;99027.75;5003763;28;20116;-68
2022/03/08 05:46:39;;;;;;;55.15;25.42;;;;;;;28.22;53.27;99025.47;4999315;28;20053;-68
2022/03/08 05:49:22;;;;;;;95.00;27.73;;;;;;;28.20;53.14;99027.41;5000952;28;20081;-68
2022/03/08 05:52:11;;;;;;;78.72;24.65;;;;;;;28.31;49.48;99024.56;4994924;28;20092;-66
2022/03/08 05:54:53;;;;;;;41.08;17.58;;;;;;;27.47;48.15;99021.16;4994286;28;20046;-67
2022/03/08 05:57:42;;;;;;;50.55;19.98;;;;;;;27.94;50.50;99015.81;5003098;28;20628;-67
2022/03/08 06:00:24;;;;;;;57.50;21.63;;;;;;;28.21;51.51;99010.53;5000566;28;20152;-67
2022/03/08 06:03:13;;;;;;;65.13;20.65;;;;;;;28.41;49.87;99011.25;5004339;28;20050;-67
2022/03/08 06:05:55;;;;;;;72.57;21.70;;;;;;;28.50;50.24;99008.50;5003464;28;20057;-67
2022/03/08 06:08:44;;;;;;;48.03;20.20;;;;;;;28.30;49.75;99007.00;5000652;28;20048;-66
2022/03/08 06:11:26;;;;;;;42.22;18.35;;;;;;;27.83;45.31;99005.44;5002651;28;20057;-67
2022/03/08 06:14:21;;;;;;;57.80;22.13;;;;;;;28.34;50.19;99000.38;5004239;28;20089;-69
2022/03/08 06:16:57;;;;;;;46.05;20.15;;;;;;;28.35;49.17;98998.56;5004129;28;20050;-69
2022/03/08 06:19:52;;;;;;;42.65;17.55;;;;;;;28.31;48.34;98990.09;5004817;28;20112;-67
2022/03/08 06:22:27;;;;;;;48.60;17.48;;;;;;;28.70;48.83;98987.13;5004084;28;20049;-66
2022/03/08 06:25:22;;;;;;;50.78;18.67;;;;;;;28.43;50.13;98980.94;5000565;28;20060;-70
2022/03/08 06:28:11;;;;;;;42.15;15.73;;;;;;;28.16;47.23;98988.97;5011076;28;20078;-70
2022/03/08 06:30:53;;;;;;;30.20;12.82;;;;;;;28.23;47.09;98989.19;5005935;28;20046;-70
2022/03/08 06:33:48;;;;;;;36.40;16.30;;;;;;;28.39;49.25;98962.84;5004855;28;20054;-68
2022/03/08 06:36:24;;;;;;;45.78;16.17;;;;;;;27.97;47.92;98968.69;5003251;28;20057;-69
2022/03/08 06:39:13;;;;;;;44.63;16.83;;;;;;;28.04;48.42;98969.75;5001095;28;20100;-70
2022/03/08 06:41:56;;;;;;;44.00;18.02;;;;;;;27.93;49.36;98963.84;4997312;28;20492;-75
2022/03/08 06:44:45;;;;;;;37.67;14.50;;;;;;;28.24;46.25;98967.84;4995417;28;20108;-77
2022/03/08 06:47:27;;;;;;;32.92;13.40;;;;;;;28.17;45.12;98969.44;5006420;28;20045;-73
2022/03/08 06:50:16;;;;;;;41.08;14.32;;;;;;;28.20;46.73;98968.28;5000487;28;20046;-68
2022/03/08 06:52:58;;;;;;;32.53;14.45;;;;;;;28.16;47.30;98967.75;4994979;28;20038;-69
2022/03/08 06:55:47;;;;;;;46.63;14.82;;;;;;;28.15;47.43;98958.13;5003430;28;20061;-69
2022/03/08 06:58:29;;;;;;;38.55;17.17;;;;;;;28.08;45.43;98955.22;5003090;28;20064;-70
2022/03/08 07:01:25;;;;;;;42.55;18.80;;;;;;;28.24;48.05;98944.00;5002020;28;20128;-70
2022/03/08 07:04:00;;;;;;;52.72;25.35;;;;;;;28.39;48.68;98946.94;4990470;28;20053;-70
2022/03/08 07:06:49;;;;;;;65.00;29.67;;;;;;;28.43;50.24;98937.69;4998806;28;20042;-71
2022/03/08 07:09:31;;;;;;;55.30;26.83;;;;;;;28.39;48.82;98937.16;5000567;28;20058;-70
2022/03/08 07:12:20;;;;;;;59.92;26.02;;;;;;;28.49;49.51;98940.56;5002339;28;20137;-70
2022/03/08 07:15:06;;;;;;;57.10;24.77;;;;;;;28.35;47.52;98932.31;5003886;28;20117;-69
2022/03/08 07:18:00;;;;;;;31.55;15.63;;;;;;;28.46;45.85;98932.09;5007311;28;20049;-69
2022/03/08 07:20:36;;;;;;;38.13;18.13;;;;;;;28.44;45.53;98932.22;4996044;28;20046;-72
2022/03/08 07:23:24;;;;;;;47.72;20.42;;;;;;;28.53;47.41;98920.72;5007511;28;20049;-72
2022/03/08 07:26:06;;;;;;;50.00;19.90;;;;;;;28.70;44.92;98928.78;5007287;28;20073;-67
2022/03/08 07:28:56;;;;;;;26.45;12.15;;;;;;;28.71;43.28;98926.00;5005996;28;20057;-71
2022/03/08 07:31:40;;;;;;;29.20;14.10;;;;;;;28.61;43.85;98921.75;5001554;28;20081;-68
2022/03/08 07:34:29;;;;;;;32.33;14.27;;;;;;;28.49;44.45;98921.19;5002521;28;20050;-71
2022/03/08 07:37:11;;;;;;;32.53;11.60;;;;;;;28.55;43.11;98920.56;5007271;28;20088;-69
2022/03/08 07:40:06;;;;;;;20.58;9.48;;;;;;;28.56;41.07;98916.94;5003276;28;20049;-71
2022/03/08 07:42:42;;;;;;;19.10;9.40;;;;;;;28.57;47.35;98901.84;5002945;28;20161;-68
2022/03/08 07:45:37;;;;;;;31.45;9.50;;;;;;;28.68;44.76;98904.25;5000201;28;20050;-70
2022/03/08 07:48:13;;;;;;;24.95;9.32;;;;;;;28.62;45.23;98900.41;4994419;28;20080;-71
2022/03/08 07:51:09;;;;;;;31.55;10.85;;;;;;;28.49;45.29;98895.50;5007321;28;20050;-72
2022/03/08 07:53:47;;;;;;;17.67;7.63;;;;;;;28.40;43.86;98896.44;5004387;28;20054;-70
2022/03/08 07:56:36;;;;;;;17.50;9.30;;;;;;;28.49;41.88;98895.50;5007325;28;20050;-69
2022/03/08 07:59:26;;;;;;;18.67;7.70;;;;;;;28.37;43.24;98886.13;5004727;28;20045;-68
2022/03/08 08:02:08;;;;;;;17.17;6.53;;;;;;;28.63;44.07;98885.31;5004198;28;20064;-70
2022/03/08 08:04:57;;;;;;;23.23;7.57;;;;;;;28.59;46.43;98876.00;5005523;28;20056;-71
2022/03/08 08:07:53;;;;;;;15.60;7.78;;;;;;;28.64;46.01;98865.78;5004596;28;20140;-72
2022/03/08 08:10:29;;;;;;;11.82;6.97;;;;;;;28.40;43.20;98859.31;5007428;28;20064;-72
2022/03/08 08:13:18;;;;;;;18.88;7.15;;;;;;;28.38;44.66;98855.16;5005694;28;20080;-69
2022/03/08 08:16:07;;;;;;;22.08;8.75;;;;;;;28.27;46.43;98853.56;4989508;28;20042;-70
2022/03/08 08:18:51;;;;;;;20.60;7.95;;;;;;;28.16;45.65;98856.47;5006443;28;20136;-70
2022/03/08 08:21:39;;;;;;;24.60;8.57;;;;;;;28.01;46.06;98842.06;5003250;28;20147;-70
2022/03/08 08:24:21;;;;;;;26.17;7.35;;;;;;;28.03;46.86;98838.25;5004449;28;20049;-69
2022/03/08 08:27:16;;;;;;;20.73;8.63;;;;;;;28.15;46.42;98836.22;5003087;28;20046;-67
2022/03/08 08:29:54;;;;;;;25.02;8.63;;;;;;;28.26;48.39;98836.00;5005017;28;20046;-71
2022/03/08 08:32:50;;;;;;;25.08;8.48;;;;;;;28.12;47.94;98833.88;4991644;28;20053;-69
2022/03/08 08:35:40;;;;;;;18.02;9.52;;;;;;;28.01;44.57;98828.81;5005292;28;20132;-70
2022/03/08 08:38:22;;;;;;;22.30;7.90;;;;;;;27.98;46.73;98815.88;4992760;28;20168;-67
2022/03/08 08:41:11;;;;;;;22.80;8.18;;;;;;;27.89;46.27;98816.78;5003856;28;20133;-69
2022/03/08 08:43:53;;;;;;;15.48;7.45;;;;;;;27.86;44.99;98817.09;5006484;28;20053;-69
2022/03/08 08:46:42;;;;;;;18.95;9.10;;;;;;;27.74;47.03;98825.28;5006711;28;20080;-67
2022/03/08 08:49:37;;;;;;;30.58;8.75;;;;;;;27.55;47.03;98817.44;5000330;28;20057;-68
2022/03/08 08:52:13;;;;;;;26.83;7.85;;;;;;;27.62;47.26;98815.03;5005853;28;20870;-69
2022/03/08 08:55:03;;;;;;;22.95;8.50;;;;;;;27.65;49.11;98815.56;5001103;28;20106;-68
2022/03/08 08:57:49;;;;;;;24.75;9.02;;;;;;;27.55;46.28;98812.16;5004223;28;20071;-70
2022/03/08 09:00:38;;;;;;;28.55;8.00;;;;;;;27.59;48.06;98804.75;5004889;28;20057;-69
2022/03/08 09:03:20;;;;;;;18.42;7.30;;;;;;;27.50;46.41;98801.16;5002825;28;20045;-69
2022/03/08 09:06:09;;;;;;;22.02;7.53;;;;;;;27.54;46.63;98791.97;5000729;28;20038;-70
2022/03/08 09:08:51;;;;;;;20.90;6.97;;;;;;;27.70;47.03;98783.34;5007693;28;20053;-70
2022/03/08 09:11:42;;;;;;;16.23;7.13;;;;;;;27.64;47.24;98782.13;5003798;28;20054;-70
2022/03/08 09:14:24;;;;;;;22.60;9.38;;;;;;;27.64;47.13;98782.13;5003988;28;20052;-69
2022/03/08 09:17:13;;;;;;;14.70;7.32;;;;;;;27.63;47.37;98780.47;5004554;28;20143;-69
2022/03/08 09:20:02;;;;;;;20.73;7.95;;;;;;;27.52;48.13;98782.50;5005388;28;20042;-69
2022/03/08 09:22:44;;;;;;;20.92;8.27;;;;;;;27.37;48.12;98776.91;5004379;28;20383;-70
2022/03/08 09:25:35;;;;;;;20.65;8.23;;;;;;;27.37;47.39;98779.53;5001909;28;20050;-67
2022/03/08 09:28:16;;;;;;;30.20;8.07;;;;;;;27.30;49.16;98773.16;4998105;28;20946;-66
2022/03/08 09:31:05;;;;;;;19.70;8.07;;;;;;;27.16;48.13;98777.16;4988788;28;20046;-65
2022/03/08 09:33:42;;;;;;;20.13;7.97;;;;;;;27.19;49.96;98771.56;5010476;28;20061;-67
2022/03/08 09:36:30;;;;;;;27.00;8.35;;;;;;;27.16;50.44;98765.72;5005300;28;20050;-65
2022/03/08 09:39:12;;;;;;;18.67;7.55;;;;;;;27.15;50.77;98761.41;4992349;28;20709;-67
2022/03/08 09:42:10;;;;;;;27.35;9.00;;;;;;;26.94;50.78;98746.66;5005228;28;20054;-66
2022/03/08 09:44:46;;;;;;;27.88;8.10;;;;;;;27.04;50.65;98754.53;5003991;28;20061;-69
2022/03/08 09:47:41;;;;;;;27.05;8.10;;;;;;;27.12;51.09;98753.78;5003669;28;20061;-66
2022/03/08 09:50:18;;;;;;;24.40;9.30;;;;;;;27.09;52.27;98760.22;5003300;28;20057;-68
2022/03/08 09:53:11;;;;;;;34.33;10.05;;;;;;;27.15;52.13;98753.47;4999950;28;20045;-68
2022/03/08 09:55:53;;;;;;;32.03;10.50;;;;;;;27.19;52.10;98754.84;5002991;28;20046;-68
2022/03/08 09:58:44;;;;;;;24.77;10.70;;;;;;;27.11;52.02;98749.47;5002568;28;20817;-68
2022/03/08 10:01:33;;;;;;;34.67;10.15;;;;;;;27.15;53.15;98738.44;5000737;28;20145;-68
2022/03/08 10:04:20;;;;;;;24.38;11.93;;;;;;;27.18;52.46;98737.31;5003771;28;20038;-68
2022/03/08 10:07:28;;;;;;;22.23;11.20;;;;;;;27.21;51.33;98737.03;5001920;28;20053;-68
2022/03/08 10:10:10;;;;;;;22.75;9.63;;;;;;;27.30;52.25;98736.94;5002736;28;20038;-68
2022/03/08 10:13:12;;;;;;;36.38;10.95;;;;;;;27.38;50.95;98730.88;5002346;28;20049;-68
2022/03/08 10:16:09;;;;;;;35.65;10.73;;;;;;;27.35;49.92;98734.69;5003472;28;20481;-68
2022/03/08 10:18:58;;;;;;;;;;;;;;;27.25;48.75;98735.72;5002300;28;20134;-68
2022/03/08 10:21:42;;;;;;;22.70;9.93;;;;;;;27.25;51.89;98728.63;5002161;28;19925;-67
2022/03/08 10:24:34;;;;;;;22.13;10.27;;;;;;;27.31;51.18;98719.25;5003559;28;20058;-67
2022/03/08 10:27:19;;;;;;;29.75;10.00;;;;;;;27.29;53.00;98716.78;4984932;28;20057;-68
2022/03/08 10:30:12;;;;;;;25.67;10.80;;;;;;;27.03;51.90;98714.03;5001919;28;20060;-67
2022/03/08 10:33:19;;;;;;;22.58;10.13;;;;;;;27.03;50.46;98716.69;5003184;28;20053;-65
2022/03/08 10:36:07;;;;;;;25.67;10.63;;;;;;;26.96;51.31;98699.75;5003767;28;20045;-67
2022/03/08 10:39:15;;;;;;;35.65;10.75;;;;;;;26.94;51.56;98708.78;5002149;28;20045;-67
2022/03/08 10:42:05;;;;;;;27.67;11.60;;;;;;;26.89;52.09;98695.16;5001390;28;20060;-66
2022/03/08 10:44:49;;;;;;;31.38;10.60;;;;;;;26.97;52.95;98693.47;5001472;28;20151;-67
2022/03/08 10:47:58;;;;;;;37.42;11.55;;;;;;;26.94;54.66;98693.75;5003110;28;20161;-70
2022/03/08 10:50:51;;;;;;;31.15;10.75;;;;;;;26.85;53.46;98685.84;5002051;28;20643;-69
2022/03/08 10:53:33;;;;;;;18.85;10.02;;;;;;;26.83;54.24;98682.50;5010053;28;20654;-69
2022/03/08 10:56:23;;;;;;;30.55;10.90;;;;;;;26.76;51.13;98679.63;5003064;28;20045;-68
2022/03/08 10:59:07;;;;;;;23.45;10.35;;;;;;;26.80;53.36;98674.91;5002099;28;20057;-67
2022/03/08 11:01:56;;;;;;;32.33;9.93;;;;;;;26.77;53.65;98676.03;4986777;28;20042;-68
2022/03/08 11:04:39;;;;;;;23.23;9.52;;;;;;;26.63;52.83;98677.34;5001152;28;20049;-70
2022/03/08 11:07:29;;;;;;;22.33;9.90;;;;;;;26.48;53.29;98670.06;5001918;28;20125;-69
2022/03/08 11:10:13;;;;;;;27.52;10.23;;;;;;;26.48;53.10;98675.34;4998435;28;20042;-70
2022/03/08 11:13:10;;;;;;;20.67;10.13;;;;;;;26.47;52.41;98671.88;4989188;28;20157;-69
2022/03/08 11:15:46;;;;;;;29.15;9.55;;;;;;;26.37;53.93;98675.53;4999461;28;20153;-69
2022/03/08 11:18:36;;;;;;;25.67;9.47;;;;;;;26.32;54.02;98677.78;5001013;28;20060;-69
2022/03/08 11:21:21;;;;;;;29.58;9.13;;;;;;;26.33;54.15;98666.25;4999717;28;20050;-68
2022/03/08 11:24:09;;;;;;;23.42;9.82;;;;;;;26.33;54.59;98682.09;5000683;28;20082;-67
2022/03/08 11:27:06;;;;;;;21.10;9.07;;;;;;;26.30;54.55;98683.22;4992845;28;20046;-67
2022/03/08 11:29:42;;;;;;;28.88;9.25;;;;;;;26.22;54.91;98680.44;4982139;28;20360;-68
2022/03/08 11:33:10;;;;;;;24.67;8.95;;;;;;;26.11;55.71;98675.31;4964579;28;20050;-66
2022/03/08 11:36:10;;;;;;;25.45;10.18;;;;;;;25.96;56.76;98672.31;4968442;28;20050;-67
2022/03/08 11:39:20;;;;;;;19.25;8.30;;;;;;;25.77;57.10;98667.09;4980061;28;20050;-71
2022/03/08 11:42:36;;;;;;;25.00;8.80;;;;;;;25.80;57.31;98664.13;4982088;28;20050;-67
2022/03/08 11:45:27;;;;;;;25.77;8.38;;;;;;;25.68;57.37;98670.56;4982808;28;20046;-68
2022/03/08 11:48:11;;;;;;;20.38;8.77;;;;;;;25.54;58.89;98661.25;4984632;28;20054;-68
2022/03/08 11:51:16;;;;;;;22.55;9.02;;;;;;;25.51;59.64;98659.72;4985449;28;20054;-69
2022/03/08 11:54:05;;;;;;;20.70;8.27;;;;;;;25.48;59.99;98667.91;4963034;28;20050;-68
2022/03/08 11:56:54;;;;;;;21.55;8.45;;;;;;;25.40;61.11;98670.41;4986572;28;20057;-71
2022/03/08 11:59:36;;;;;;;13.68;8.10;;;;;;;25.38;60.32;98675.00;4968360;28;20121;-71
2022/03/08 12:02:31;;;;;;;27.25;8.55;;;;;;;25.32;60.74;98672.91;4967155;28;20047;-71
2022/03/08 12:05:08;;;;;;;24.80;8.80;;;;;;;25.25;60.38;98674.44;4980220;28;20049;-69
2022/03/08 12:08:24;;;;;;;17.75;8.57;;;;;;;25.17;60.33;98676.94;4987858;28;20054;-70
2022/03/08 12:11:12;;;;;;;20.67;9.90;;;;;;;25.12;60.39;98679.16;4989071;28;20060;-71
2022/03/08 12:14:33;;;;;;;19.30;7.80;;;;;;;25.10;61.65;98679.28;4986075;28;20148;-70
2022/03/08 12:17:18;;;;;;;24.58;7.88;;;;;;;25.09;60.84;98685.53;4986277;28;20137;-70
2022/03/08 12:20:14;;;;;;;27.67;9.23;;;;;;;24.87;61.62;98680.47;4969448;28;20055;-70
2022/03/08 12:23:14;;;;;;;36.03;8.95;;;;;;;24.79;61.22;98686.44;4980952;28;20050;-71
2022/03/08 12:26:38;;;;;;;21.45;9.45;;;;;;;24.69;61.51;98687.38;4979200;28;20441;-71
2022/03/08 12:29:55;;;;;;;22.80;8.90;;;;;;;24.64;61.12;98685.16;5005126;28;20062;-69
2022/03/08 12:32:47;;;;;;;24.48;10.10;;;;;;;24.56;62.36;98686.78;5001413;28;20046;-66
2022/03/08 12:35:35;;;;;;;34.13;10.90;;;;;;;24.53;60.66;98692.31;5004074;28;20588;-66
2022/03/08 12:38:20;;;;;;;23.10;9.68;;;;;;;24.50;61.39;98688.16;5004390;28;20537;-68
2022/03/08 12:41:08;;;;;;;23.23;9.27;;;;;;;24.48;62.76;98697.16;5000793;28;20053;-68
2022/03/08 12:44:01;;;;;;;30.65;10.30;;;;;;;24.41;61.21;98699.50;5005836;28;20129;-70
2022/03/08 12:46:49;;;;;;;28.63;11.32;;;;;;;24.30;60.96;98697.78;5001921;28;20046;-70
2022/03/08 12:49:31;;;;;;;27.83;9.90;;;;;;;24.20;61.33;98701.28;4992120;28;20072;-69
2022/03/08 12:52:20;;;;;;;28.42;10.35;;;;;;;24.08;60.27;98697.06;5003307;28;20041;-65
2022/03/08 12:55:05;;;;;;;24.67;9.52;;;;;;;24.02;60.51;98699.25;5003608;28;20100;-70